createdAt,value
2017-03-18T00:00:42.649Z,0
2017-03-18T00:01:53.011Z,0
2017-03-18T00:03:03.361Z,0
2017-03-18T00:04:13.406Z,0
2017-03-18T00:05:23.735Z,0
2017-03-18T00:06:34.080Z,0
2017-03-18T00:07:44.436Z,0
2017-03-18T00:08:54.766Z,0
2017-03-18T00:10:04.793Z,0
2017-03-18T00:11:15.141Z,0
2017-03-18T00:12:25.185Z,0
2017-03-18T00:13:35.529Z,0
2017-03-18T00:14:45.868Z,0
2017-03-18T00:15:56.194Z,0
2017-03-18T00:17:06.208Z,0
2017-03-18T00:18:16.572Z,0
2017-03-18T00:19:26.923Z,0
2017-03-18T00:20:37.257Z,0
2017-03-18T00:21:47.298Z,0
2017-03-18T00:22:57.328Z,0
2017-03-18T00:24:07.362Z,0
2017-03-18T00:25:17.406Z,0
2017-03-18T00:26:27.740Z,0
2017-03-18T00:27:38.096Z,0
2017-03-18T00:28:48.126Z,0
2017-03-18T00:29:58.533Z,0
2017-03-18T00:31:08.858Z,0
2017-03-18T00:32:19.190Z,0
2017-03-18T00:33:29.221Z,0
2017-03-18T00:34:39.570Z,0
2017-03-18T00:35:49.908Z,0
2017-03-18T00:37:00.243Z,0
2017-03-18T00:38:10.582Z,0
2017-03-18T00:39:20.953Z,0
2017-03-18T00:40:31.303Z,0
2017-03-18T00:41:41.337Z,0
2017-03-18T00:42:51.686Z,0
2017-03-18T00:44:02.035Z,0
2017-03-18T00:45:12.372Z,0
2017-03-18T00:46:22.700Z,0
2017-03-18T00:47:32.744Z,0
2017-03-18T00:48:42.807Z,0
2017-03-18T00:49:53.145Z,0
2017-03-18T00:51:03.496Z,0
2017-03-18T00:52:13.837Z,0
2017-03-18T00:53:24.208Z,0
2017-03-18T00:54:34.233Z,0
2017-03-18T00:55:44.594Z,0
2017-03-18T00:56:54.919Z,0
2017-03-18T00:58:05.267Z,0
2017-03-18T00:59:15.600Z,0
2017-03-18T01:00:25.945Z,0
2017-03-18T01:01:36.296Z,0
2017-03-18T01:02:46.323Z,0
2017-03-18T01:03:56.677Z,0
2017-03-18T01:05:07.005Z,0
2017-03-18T01:06:17.037Z,0
2017-03-18T01:07:27.055Z,0
2017-03-18T01:08:36.774Z,0
2017-03-18T01:09:47.109Z,0
2017-03-18T01:10:57.469Z,0
2017-03-18T01:12:07.502Z,0
2017-03-18T01:13:17.865Z,0
2017-03-18T01:14:28.211Z,0
2017-03-18T01:15:38.245Z,0
2017-03-18T01:16:48.582Z,0
2017-03-18T01:17:58.289Z,0
2017-03-18T01:19:08.643Z,0
2017-03-18T01:20:18.983Z,0
2017-03-18T01:21:28.710Z,0
2017-03-18T01:22:39.038Z,0
2017-03-18T01:23:49.383Z,0
2017-03-18T01:24:59.726Z,0
2017-03-18T01:26:09.758Z,0
2017-03-18T01:27:20.086Z,0
2017-03-18T01:28:30.431Z,0
2017-03-18T01:29:40.768Z,0
2017-03-18T01:30:51.133Z,0
2017-03-18T01:32:01.501Z,0
2017-03-18T01:33:11.903Z,0
2017-03-18T01:34:22.245Z,0
2017-03-18T01:35:31.969Z,0
2017-03-18T01:36:42.000Z,0
2017-03-18T01:37:52.029Z,0
2017-03-18T01:39:02.070Z,0
2017-03-18T01:40:12.417Z,0
2017-03-18T01:41:22.458Z,0
2017-03-18T01:42:32.809Z,0
2017-03-18T01:43:43.152Z,0
2017-03-18T01:44:53.184Z,0
2017-03-18T01:46:03.515Z,0
2017-03-18T01:47:13.542Z,0
2017-03-18T01:48:23.885Z,0
2017-03-18T01:49:33.916Z,0
2017-03-18T01:50:44.262Z,0
2017-03-18T01:51:54.587Z,0
2017-03-18T01:53:04.932Z,0
2017-03-18T01:54:14.967Z,0
2017-03-18T01:55:25.307Z,0
2017-03-18T01:56:35.645Z,0
2017-03-18T01:57:45.986Z,0
2017-03-18T01:58:56.320Z,0
2017-03-18T02:00:06.687Z,0
2017-03-18T02:01:16.745Z,0
2017-03-18T02:02:27.100Z,0
2017-03-18T02:03:37.442Z,0
2017-03-18T02:04:47.792Z,0
2017-03-18T02:05:58.129Z,0
2017-03-18T02:07:08.457Z,0
2017-03-18T02:08:17.873Z,0
2017-03-18T02:09:28.235Z,0
2017-03-18T02:10:38.572Z,0
2017-03-18T02:11:48.902Z,0
2017-03-18T02:12:59.284Z,0
2017-03-18T02:14:09.630Z,0
2017-03-18T02:15:19.648Z,0
2017-03-18T02:16:29.990Z,0
2017-03-18T02:17:40.331Z,0
2017-03-18T02:18:50.360Z,0
2017-03-18T02:20:00.704Z,0
2017-03-18T02:21:10.730Z,0
2017-03-18T02:22:21.069Z,0
2017-03-18T02:23:31.411Z,0
2017-03-18T02:24:41.763Z,0
2017-03-18T02:25:52.103Z,0
2017-03-18T02:27:02.435Z,0
2017-03-18T02:28:12.467Z,0
2017-03-18T02:29:22.823Z,0
2017-03-18T02:30:33.161Z,0
2017-03-18T02:31:43.194Z,0
2017-03-18T02:32:53.542Z,0
2017-03-18T02:34:03.880Z,0
2017-03-18T02:35:14.223Z,0
2017-03-18T02:36:24.550Z,0
2017-03-18T02:37:34.899Z,0
2017-03-18T02:38:44.913Z,0
2017-03-18T02:39:54.954Z,0
2017-03-18T02:41:04.677Z,0
2017-03-18T02:42:15.037Z,0
2017-03-18T02:43:25.388Z,0
2017-03-18T02:44:35.742Z,0
2017-03-18T02:45:45.798Z,0
2017-03-18T02:46:56.215Z,0
2017-03-18T02:48:06.546Z,0
2017-03-18T02:49:16.572Z,0
2017-03-18T02:50:26.599Z,0
2017-03-18T02:51:36.967Z,0
2017-03-18T02:52:46.681Z,0
2017-03-18T02:53:57.057Z,0
2017-03-18T02:55:07.409Z,0
2017-03-18T02:56:17.478Z,0
2017-03-18T02:57:27.818Z,0
2017-03-18T02:58:38.211Z,0
2017-03-18T02:59:48.246Z,0
2017-03-18T03:00:58.587Z,0
2017-03-18T03:32:50.371Z,0
2017-03-18T03:34:00.729Z,0
2017-03-18T03:35:10.749Z,0
2017-03-18T03:36:21.067Z,0
2017-03-18T03:37:31.395Z,0
2017-03-18T03:38:41.729Z,0
2017-03-18T03:39:51.748Z,0
2017-03-18T03:41:02.085Z,0
2017-03-18T03:42:12.448Z,0
2017-03-18T03:43:22.151Z,0
2017-03-18T03:44:32.474Z,0
2017-03-18T03:45:42.804Z,0
2017-03-18T03:46:53.146Z,0
2017-03-18T03:48:03.483Z,0
2017-03-18T03:49:13.512Z,0
2017-03-18T03:50:24.099Z,0
2017-03-18T03:51:34.451Z,0
2017-03-18T03:52:44.816Z,0
2017-03-18T03:53:54.873Z,0
2017-03-18T03:55:04.893Z,0
2017-03-18T03:56:15.242Z,0
2017-03-18T03:57:25.268Z,0
2017-03-18T03:58:35.606Z,0
2017-03-18T03:59:45.948Z,0
2017-03-18T04:00:56.302Z,0
2017-03-18T04:02:06.634Z,0
2017-03-18T04:03:16.668Z,0
2017-03-18T04:04:26.716Z,0
2017-03-18T04:05:36.732Z,0
2017-03-18T04:06:47.125Z,0
2017-03-18T04:07:57.464Z,0
2017-03-18T04:09:07.512Z,0
2017-03-18T04:10:17.854Z,0
2017-03-18T04:11:28.190Z,0
2017-03-18T04:12:38.535Z,0
2017-03-18T04:13:48.866Z,0
2017-03-18T04:14:58.589Z,0
2017-03-18T04:16:08.929Z,0
2017-03-18T04:17:19.271Z,0
2017-03-18T04:18:29.616Z,0
2017-03-18T04:19:39.647Z,0
2017-03-18T04:20:49.991Z,0
2017-03-18T04:22:00.025Z,0
2017-03-18T04:23:10.357Z,0
2017-03-18T04:24:20.371Z,0
2017-03-18T04:25:30.695Z,0
2017-03-18T04:26:41.023Z,0
2017-03-18T04:27:51.366Z,0
2017-03-18T04:29:01.428Z,0
2017-03-18T04:30:11.455Z,0
2017-03-18T04:31:21.472Z,0
2017-03-18T04:32:31.798Z,0
2017-03-18T04:33:42.161Z,0
2017-03-18T04:34:52.514Z,0
2017-03-18T04:36:02.860Z,0
2017-03-18T04:37:12.893Z,0
2017-03-18T04:38:23.230Z,0
2017-03-18T04:39:33.276Z,0
2017-03-18T04:40:43.612Z,0
2017-03-18T04:41:53.328Z,4
2017-03-18T04:43:03.361Z,4
2017-03-18T04:44:13.705Z,4
2017-03-18T04:45:24.082Z,0
2017-03-18T04:46:34.405Z,4
2017-03-18T04:47:44.730Z,4
2017-03-18T04:48:55.073Z,4
2017-03-18T04:50:05.425Z,4
2017-03-18T04:51:15.989Z,8
2017-03-18T04:52:26.362Z,8
2017-03-18T04:53:36.708Z,8
2017-03-18T04:54:47.060Z,8
2017-03-18T04:55:57.083Z,12
2017-03-18T04:57:07.412Z,12
2017-03-18T04:58:17.758Z,16
2017-03-18T04:59:27.477Z,16
2017-03-18T05:00:37.494Z,16
2017-03-18T05:01:47.817Z,20
2017-03-18T05:02:58.157Z,24
2017-03-18T05:04:08.177Z,24
2017-03-18T05:05:18.547Z,28
2017-03-18T05:06:28.879Z,32
2017-03-18T05:07:39.216Z,32
2017-03-18T05:08:49.253Z,28
2017-03-18T05:09:59.279Z,32
2017-03-18T05:11:09.619Z,36
2017-03-18T05:12:19.947Z,44
2017-03-18T05:13:29.968Z,44
2017-03-18T05:14:40.323Z,48
2017-03-18T05:15:50.676Z,48
2017-03-18T05:17:01.003Z,52
2017-03-18T05:18:11.035Z,56
2017-03-18T05:19:21.390Z,56
2017-03-18T05:20:31.714Z,56
2017-03-18T05:21:41.742Z,60
2017-03-18T05:22:51.786Z,72
2017-03-18T05:24:02.125Z,84
2017-03-18T05:25:12.193Z,88
2017-03-18T05:26:22.526Z,96
2017-03-18T05:27:32.856Z,96
2017-03-18T05:28:43.181Z,100
2017-03-18T05:29:52.909Z,104
2017-03-18T05:31:03.264Z,104
2017-03-18T05:32:13.602Z,104
2017-03-18T05:33:23.925Z,100
2017-03-18T05:34:34.262Z,96
2017-03-18T05:35:44.606Z,96
2017-03-18T05:36:54.938Z,96
2017-03-18T05:38:05.278Z,108
2017-03-18T05:39:15.023Z,124
2017-03-18T05:40:25.361Z,136
2017-03-18T05:41:35.706Z,144
2017-03-18T05:42:46.059Z,152
2017-03-18T05:43:56.409Z,152
2017-03-18T05:45:06.752Z,160
2017-03-18T05:46:17.098Z,164
2017-03-18T05:47:27.440Z,164
2017-03-18T05:48:37.767Z,164
2017-03-18T05:49:47.784Z,164
2017-03-18T05:50:58.135Z,164
2017-03-18T05:52:08.458Z,164
2017-03-18T05:53:18.792Z,172
2017-03-18T05:54:28.824Z,176
2017-03-18T05:55:39.181Z,180
2017-03-18T05:56:49.524Z,196
2017-03-18T05:57:59.880Z,228
2017-03-18T05:59:10.214Z,252
2017-03-18T06:00:20.552Z,260
2017-03-18T06:01:30.882Z,260
2017-03-18T06:02:41.220Z,264
2017-03-18T06:03:51.579Z,280
2017-03-18T06:05:01.948Z,296
2017-03-18T06:06:11.989Z,300
2017-03-18T06:07:22.018Z,288
2017-03-18T06:08:32.359Z,292
2017-03-18T06:09:42.687Z,284
2017-03-18T06:10:53.033Z,288
2017-03-18T06:12:03.376Z,284
2017-03-18T06:13:13.711Z,300
2017-03-18T06:14:23.758Z,344
2017-03-18T06:15:33.775Z,408
2017-03-18T06:16:44.108Z,428
2017-03-18T06:17:54.485Z,424
2017-03-18T06:19:04.826Z,440
2017-03-18T06:20:15.174Z,444
2017-03-18T06:21:25.214Z,452
2017-03-18T06:22:35.226Z,504
2017-03-18T06:23:45.559Z,532
2017-03-18T06:24:55.897Z,508
2017-03-18T06:26:06.239Z,512
2017-03-18T06:27:16.266Z,484
2017-03-18T06:28:26.291Z,492
2017-03-18T06:29:36.000Z,548
2017-03-18T06:30:46.338Z,656
2017-03-18T06:31:56.680Z,784
2017-03-18T06:33:07.016Z,968
2017-03-18T06:34:16.726Z,1220
2017-03-18T06:35:27.052Z,1408
2017-03-18T06:36:37.071Z,1372
2017-03-18T06:37:46.794Z,1208
2017-03-18T06:38:57.155Z,1172
2017-03-18T06:40:07.480Z,1212
2017-03-18T06:41:17.510Z,1280
2017-03-18T06:42:27.844Z,1432
2017-03-18T06:43:37.808Z,1412
2017-03-18T06:44:48.149Z,1332
2017-03-18T06:45:58.724Z,1236
2017-03-18T06:47:09.073Z,1264
2017-03-18T06:48:19.438Z,1216
2017-03-18T06:49:29.785Z,1176
2017-03-18T06:50:39.811Z,1148
2017-03-18T06:51:50.174Z,1248
2017-03-18T06:53:00.537Z,1328
2017-03-18T06:54:10.581Z,1324
2017-03-18T06:55:20.938Z,1276
2017-03-18T06:56:31.311Z,1152
2017-03-18T06:57:41.341Z,1060
2017-03-18T06:58:51.373Z,920
2017-03-18T07:00:01.717Z,908
2017-03-18T07:01:11.437Z,964
2017-03-18T07:02:21.145Z,960
2017-03-18T07:03:31.471Z,960
2017-03-18T07:04:41.813Z,984
2017-03-18T07:05:51.824Z,1028
2017-03-18T07:07:02.171Z,1032
2017-03-18T07:08:11.882Z,1132
2017-03-18T07:09:22.249Z,1296
2017-03-18T07:10:32.606Z,1572
2017-03-18T07:11:42.623Z,1952
2017-03-18T07:12:52.979Z,2208
2017-03-18T07:14:03.012Z,2364
2017-03-18T07:15:13.341Z,2524
2017-03-18T07:16:23.666Z,2464
2017-03-18T07:17:33.701Z,2020
2017-03-18T07:18:44.057Z,1700
2017-03-18T07:19:54.421Z,1612
2017-03-18T07:21:04.462Z,1584
2017-03-18T07:22:14.807Z,1576
2017-03-18T07:23:25.151Z,1580
2017-03-18T07:24:35.173Z,1528
2017-03-18T07:25:45.184Z,1532
2017-03-18T07:26:55.508Z,1480
2017-03-18T07:28:05.553Z,1324
2017-03-18T07:29:15.579Z,1132
2017-03-18T07:30:25.607Z,960
2017-03-18T07:31:35.643Z,900
2017-03-18T07:32:45.995Z,876
2017-03-18T07:33:56.025Z,908
2017-03-18T07:35:06.366Z,920
2017-03-18T07:36:16.393Z,976
2017-03-18T07:37:26.734Z,1044
2017-03-18T07:38:37.073Z,1228
2017-03-18T07:39:47.411Z,1500
2017-03-18T07:40:57.753Z,1868
2017-03-18T07:42:08.092Z,2316
2017-03-18T07:43:18.429Z,2476
2017-03-18T07:44:28.781Z,2576
2017-03-18T07:45:39.137Z,2500
2017-03-18T07:46:49.479Z,2484
2017-03-18T07:47:59.513Z,2448
2017-03-18T07:49:09.852Z,2332
2017-03-18T07:50:19.877Z,2080
2017-03-18T07:51:29.906Z,1808
2017-03-18T07:52:40.269Z,1480
2017-03-18T07:53:50.305Z,1408
2017-03-18T07:55:00.350Z,1756
2017-03-18T07:56:10.672Z,2092
2017-03-18T07:57:21.013Z,2360
2017-03-18T07:58:31.058Z,2712
2017-03-18T07:59:41.086Z,2704
2017-03-18T08:00:51.124Z,2532
2017-03-18T08:02:01.471Z,2564
2017-03-18T08:03:11.498Z,2596
2017-03-18T08:04:21.847Z,2344
2017-03-18T08:05:31.885Z,1860
2017-03-18T08:06:41.587Z,1408
2017-03-18T08:07:51.923Z,1160
2017-03-18T08:09:02.279Z,1044
2017-03-18T08:10:12.608Z,1004
2017-03-18T08:11:22.956Z,940
2017-03-18T08:12:33.297Z,1024
2017-03-18T08:13:43.349Z,1164
2017-03-18T08:14:53.704Z,1268
2017-03-18T08:16:04.054Z,1424
2017-03-18T08:17:14.390Z,1440
2017-03-18T08:18:24.731Z,1376
2017-03-18T08:19:34.452Z,1324
2017-03-18T08:20:44.808Z,1304
2017-03-18T08:21:55.190Z,1372
2017-03-18T08:23:05.210Z,1424
2017-03-18T08:24:15.561Z,1436
2017-03-18T08:25:25.930Z,1504
2017-03-18T08:26:36.304Z,1576
2017-03-18T08:27:46.640Z,1600
2017-03-18T08:28:57.001Z,1656
2017-03-18T08:30:06.711Z,1756
2017-03-18T08:31:17.049Z,1892
2017-03-18T08:32:27.401Z,2012
2017-03-18T08:33:37.753Z,2208
2017-03-18T08:34:47.790Z,2216
2017-03-18T08:35:58.121Z,2136
2017-03-18T08:37:08.458Z,2152
2017-03-18T08:38:18.822Z,2232
2017-03-18T08:39:29.167Z,2436
2017-03-18T08:40:39.524Z,2372
2017-03-18T08:41:49.875Z,2252
2017-03-18T08:43:00.221Z,1912
2017-03-18T08:44:10.568Z,1540
2017-03-18T08:45:20.915Z,1392
2017-03-18T08:46:31.260Z,1496
2017-03-18T08:47:41.617Z,1808
2017-03-18T08:48:51.970Z,1976
2017-03-18T08:50:02.006Z,1976
2017-03-18T08:51:12.357Z,1940
2017-03-18T08:52:22.734Z,1976
2017-03-18T08:53:33.090Z,2148
2017-03-18T08:54:43.122Z,2252
2017-03-18T08:55:53.460Z,2416
2017-03-18T08:57:03.495Z,2576
2017-03-18T08:58:13.849Z,2780
2017-03-18T08:59:24.206Z,2920
2017-03-18T09:00:34.568Z,2840
2017-03-18T09:01:44.923Z,2816
2017-03-18T09:02:55.280Z,3044
2017-03-18T09:04:05.617Z,3396
2017-03-18T09:05:15.969Z,3728
2017-03-18T09:06:26.314Z,4076
2017-03-18T09:07:36.667Z,4332
2017-03-18T09:08:47.023Z,4552
2017-03-18T09:09:57.388Z,4676
2017-03-18T09:11:07.726Z,4712
2017-03-18T09:12:18.076Z,4724
2017-03-18T09:13:28.465Z,4776
2017-03-18T09:14:38.809Z,4924
2017-03-18T09:15:48.552Z,4952
2017-03-18T09:16:58.895Z,4944
2017-03-18T09:18:09.251Z,4924
2017-03-18T09:19:19.605Z,5000
2017-03-18T09:20:29.662Z,5136
2017-03-18T09:21:40.021Z,5284
2017-03-18T09:22:50.077Z,5420
2017-03-18T09:24:00.438Z,5548
2017-03-18T09:25:10.462Z,5628
2017-03-18T09:26:20.803Z,5580
2017-03-18T09:27:31.190Z,5524
2017-03-18T09:28:41.546Z,5516
2017-03-18T09:29:51.910Z,5584
2017-03-18T09:31:02.256Z,5688
2017-03-18T09:32:12.308Z,5784
2017-03-18T09:33:22.354Z,5824
2017-03-18T09:34:32.737Z,5848
2017-03-18T09:35:42.777Z,5840
2017-03-18T09:36:52.821Z,5884
2017-03-18T09:38:02.848Z,5952
2017-03-18T09:39:13.193Z,6036
2017-03-18T09:40:23.545Z,6048
2017-03-18T09:41:33.585Z,5984
2017-03-18T09:42:43.939Z,5956
2017-03-18T09:43:54.306Z,5972
2017-03-18T09:45:04.344Z,5944
2017-03-18T09:46:14.704Z,5948
2017-03-18T09:47:25.059Z,6056
2017-03-18T09:48:35.457Z,6168
2017-03-18T09:49:45.550Z,6328
2017-03-18T09:50:55.598Z,6480
2017-03-18T09:52:05.959Z,6552
2017-03-18T09:53:16.304Z,6588
2017-03-18T09:54:26.674Z,6616
2017-03-18T09:55:37.028Z,6724
2017-03-18T09:56:47.368Z,6872
2017-03-18T09:57:57.403Z,6944
2017-03-18T09:59:07.747Z,6960
2017-03-18T10:00:17.464Z,6940
2017-03-18T10:01:27.808Z,6984
2017-03-18T10:02:38.164Z,7052
2017-03-18T10:03:48.527Z,7144
2017-03-18T10:04:58.896Z,7160
2017-03-18T10:06:09.241Z,7260
2017-03-18T10:07:19.603Z,7276
2017-03-18T10:08:29.965Z,7216
2017-03-18T10:09:40.000Z,7124
2017-03-18T10:10:50.348Z,7088
2017-03-18T10:12:00.702Z,7068
2017-03-18T10:13:10.729Z,7040
2017-03-18T10:14:21.096Z,7036
2017-03-18T10:15:31.431Z,7024
2017-03-18T10:16:41.824Z,7032
2017-03-18T10:17:52.171Z,6992
2017-03-18T10:19:02.231Z,6960
2017-03-18T10:20:12.582Z,6840
2017-03-18T10:21:22.949Z,6656
2017-03-18T10:22:33.306Z,6536
2017-03-18T10:23:43.354Z,6544
2017-03-18T10:24:53.710Z,6624
2017-03-18T10:26:04.074Z,6704
2017-03-18T10:27:14.454Z,6744
2017-03-18T10:28:24.489Z,6664
2017-03-18T10:29:34.851Z,6520
2017-03-18T10:30:45.195Z,6344
2017-03-18T10:31:55.226Z,6084
2017-03-18T10:33:05.587Z,5760
2017-03-18T10:34:15.646Z,5628
2017-03-18T10:35:26.002Z,5508
2017-03-18T10:36:36.033Z,5428
2017-03-18T10:37:46.397Z,5328
2017-03-18T10:38:56.440Z,5204
2017-03-18T10:40:06.509Z,4972
2017-03-18T10:41:16.875Z,5004
2017-03-18T10:42:27.235Z,4900
2017-03-18T10:43:37.580Z,4544
2017-03-18T10:44:47.936Z,4096
2017-03-18T10:45:57.973Z,3936
2017-03-18T10:47:08.348Z,3696
2017-03-18T10:48:18.391Z,3720
2017-03-18T10:49:28.736Z,3804
2017-03-18T10:50:38.774Z,3824
2017-03-18T10:51:48.818Z,3880
2017-03-18T10:52:58.887Z,4088
2017-03-18T10:54:09.230Z,4116
2017-03-18T10:55:19.603Z,4084
2017-03-18T10:56:29.989Z,4116
2017-03-18T10:57:40.357Z,4132
2017-03-18T10:58:50.101Z,4000
2017-03-18T11:00:00.130Z,3868
2017-03-18T11:01:10.188Z,3804
2017-03-18T11:02:20.552Z,3608
2017-03-18T11:03:30.912Z,3548
2017-03-18T11:04:41.272Z,3608
2017-03-18T11:05:51.303Z,3584
2017-03-18T11:07:01.666Z,3696
2017-03-18T11:08:11.741Z,3856
2017-03-18T11:09:22.078Z,3956
2017-03-18T11:10:32.437Z,4160
2017-03-18T11:11:42.798Z,4320
2017-03-18T11:12:53.153Z,4516
2017-03-18T11:14:03.529Z,4564
2017-03-18T11:15:13.881Z,4280
2017-03-18T11:16:24.234Z,3932
2017-03-18T11:17:34.564Z,3628
2017-03-18T11:18:44.908Z,3440
2017-03-18T11:19:54.934Z,3408
2017-03-18T11:21:05.280Z,3608
2017-03-18T11:22:15.666Z,3912
2017-03-18T11:23:26.036Z,4264
2017-03-18T11:24:36.075Z,4508
2017-03-18T11:25:46.419Z,4392
2017-03-18T11:26:56.454Z,3984
2017-03-18T11:28:06.502Z,3720
2017-03-18T11:29:16.891Z,3812
2017-03-18T11:30:27.242Z,4076
2017-03-18T11:31:37.588Z,4372
2017-03-18T11:32:47.945Z,4336
2017-03-18T11:33:58.301Z,4104
2017-03-18T11:35:08.641Z,4052
2017-03-18T11:36:18.987Z,4100
2017-03-18T11:37:29.320Z,4224
2017-03-18T11:38:39.024Z,4316
2017-03-18T11:39:49.379Z,4340
2017-03-18T11:40:59.718Z,4380
2017-03-18T11:42:10.073Z,4424
2017-03-18T11:43:20.426Z,4488
2017-03-18T11:44:30.471Z,4492
2017-03-18T11:45:40.822Z,4708
2017-03-18T11:46:50.838Z,5048
2017-03-18T11:48:01.222Z,5520
2017-03-18T11:49:11.570Z,5892
2017-03-18T11:50:21.939Z,5988
2017-03-18T11:51:32.285Z,6408
2017-03-18T11:52:42.653Z,6368
2017-03-18T11:53:53.035Z,6244
2017-03-18T11:55:03.390Z,6184
2017-03-18T11:56:13.422Z,6524
2017-03-18T11:57:23.795Z,6752
2017-03-18T11:58:33.856Z,6988
2017-03-18T11:59:44.218Z,7092
2017-03-18T12:00:54.593Z,7200
2017-03-18T12:02:04.940Z,7092
2017-03-18T12:03:15.304Z,7036
2017-03-18T12:04:25.661Z,6916
2017-03-18T12:05:36.039Z,6736
2017-03-18T12:06:46.379Z,6532
2017-03-18T12:07:56.766Z,6308
2017-03-18T12:09:07.101Z,6048
2017-03-18T12:10:17.461Z,5888
2017-03-18T12:11:27.810Z,5664
2017-03-18T12:12:38.201Z,5584
2017-03-18T12:13:48.239Z,5544
2017-03-18T12:14:58.293Z,5624
2017-03-18T12:16:08.322Z,5796
2017-03-18T12:17:18.700Z,5920
2017-03-18T12:18:28.752Z,5964
2017-03-18T12:19:39.112Z,5960
2017-03-18T12:20:49.159Z,5932
2017-03-18T12:21:59.504Z,5932
2017-03-18T12:23:09.874Z,5800
2017-03-18T12:24:20.235Z,5612
2017-03-18T12:25:30.276Z,5548
2017-03-18T12:26:40.625Z,5560
2017-03-18T12:27:50.981Z,5520
2017-03-18T12:29:01.331Z,5380
2017-03-18T12:30:11.350Z,5148
2017-03-18T12:31:21.710Z,4940
2017-03-18T12:32:31.749Z,4840
2017-03-18T12:33:42.116Z,4728
2017-03-18T12:34:52.503Z,4704
2017-03-18T12:36:02.851Z,4864
2017-03-18T12:37:12.929Z,5152
2017-03-18T12:38:23.306Z,5504
2017-03-18T12:39:33.368Z,5840
2017-03-18T12:40:43.319Z,6172
2017-03-18T12:41:53.658Z,6488
2017-03-18T12:43:03.698Z,6556
2017-03-18T12:44:14.041Z,6640
2017-03-18T12:45:24.376Z,6844
2017-03-18T12:46:34.748Z,6976
2017-03-18T12:47:44.776Z,6952
2017-03-18T12:48:55.120Z,6844
2017-03-18T12:50:05.172Z,6832
2017-03-18T12:51:15.526Z,6784
2017-03-18T12:52:25.883Z,6584
2017-03-18T12:53:35.918Z,6264
2017-03-18T12:54:46.276Z,6096
2017-03-18T12:55:56.609Z,6008
2017-03-18T12:57:06.674Z,6076
2017-03-18T12:58:16.405Z,6136
2017-03-18T12:59:26.761Z,6184
2017-03-18T13:00:37.105Z,6188
2017-03-18T13:01:47.460Z,6116
2017-03-18T13:02:57.801Z,6136
2017-03-18T13:04:08.174Z,6028
2017-03-18T13:05:18.529Z,5992
2017-03-18T13:06:28.606Z,6084
2017-03-18T13:07:38.966Z,6268
2017-03-18T13:08:49.006Z,6288
2017-03-18T13:09:59.362Z,6360
2017-03-18T13:11:09.717Z,6348
2017-03-18T13:12:20.087Z,6388
2017-03-18T13:13:30.460Z,6260
2017-03-18T13:14:40.809Z,6008
2017-03-18T13:15:50.828Z,5508
2017-03-18T13:17:00.860Z,5080
2017-03-18T13:18:11.222Z,4900
2017-03-18T13:19:21.571Z,4840
2017-03-18T13:20:31.919Z,4824
2017-03-18T13:21:41.970Z,4924
2017-03-18T13:22:51.690Z,5032
2017-03-18T13:24:02.036Z,5156
2017-03-18T13:25:12.387Z,5248
2017-03-18T13:26:22.745Z,5300
2017-03-18T13:27:33.094Z,5364
2017-03-18T13:28:43.489Z,5448
2017-03-18T13:29:53.832Z,5500
2017-03-18T13:31:03.882Z,5540
2017-03-18T13:32:14.230Z,5760
2017-03-18T13:33:24.611Z,5840
2017-03-18T13:34:34.990Z,6284
2017-03-18T13:35:45.025Z,5768
2017-03-18T13:36:55.385Z,5532
2017-03-18T13:38:05.727Z,5240
2017-03-18T13:39:15.763Z,5244
2017-03-18T13:40:26.097Z,5516
2017-03-18T13:41:36.444Z,5356
2017-03-18T13:42:46.806Z,5032
2017-03-18T13:43:56.524Z,6012
2017-03-18T13:45:06.601Z,6484
2017-03-18T13:46:16.960Z,6596
2017-03-18T13:47:27.325Z,8432
2017-03-18T13:48:37.664Z,7392
2017-03-18T13:49:47.701Z,7160
2017-03-18T13:50:57.730Z,7324
2017-03-18T13:52:07.772Z,6752
2017-03-18T13:53:18.136Z,6452
2017-03-18T13:54:28.182Z,5928
2017-03-18T13:55:38.539Z,5560
2017-03-18T13:56:48.875Z,5056
2017-03-18T13:57:59.223Z,4748
2017-03-18T13:59:09.630Z,4640
2017-03-18T14:00:19.965Z,4488
2017-03-18T14:01:29.998Z,4448
2017-03-18T14:02:40.352Z,4568
2017-03-18T14:03:50.395Z,4740
2017-03-18T14:05:00.452Z,4768
2017-03-18T14:06:10.515Z,4612
2017-03-18T14:07:20.863Z,4352
2017-03-18T14:08:31.224Z,4160
2017-03-18T14:09:41.252Z,4024
2017-03-18T14:10:51.591Z,3904
2017-03-18T14:12:01.972Z,3844
2017-03-18T14:13:12.025Z,3848
2017-03-18T14:14:22.393Z,4108
2017-03-18T14:15:32.744Z,3936
2017-03-18T14:16:43.089Z,4336
2017-03-18T14:17:53.450Z,4188
2017-03-18T14:19:03.809Z,3856
2017-03-18T14:20:14.171Z,3632
2017-03-18T14:21:24.208Z,3664
2017-03-18T14:22:34.563Z,3912
2017-03-18T14:23:44.937Z,4152
2017-03-18T14:24:55.295Z,4516
2017-03-18T14:26:05.893Z,4852
2017-03-18T14:27:15.941Z,5084
2017-03-18T14:28:25.991Z,5584
2017-03-18T14:29:36.103Z,5800
2017-03-18T14:30:46.455Z,5940
2017-03-18T14:31:56.792Z,5700
2017-03-18T14:33:07.143Z,5720
2017-03-18T14:34:17.495Z,5660
2017-03-18T14:35:27.878Z,5616
2017-03-18T14:36:37.920Z,5908
2017-03-18T14:37:48.290Z,5276
2017-03-18T14:38:58.649Z,5228
2017-03-18T14:40:09.025Z,5272
2017-03-18T14:41:19.365Z,5124
2017-03-18T14:42:29.415Z,5000
2017-03-18T14:43:39.766Z,4864
2017-03-18T14:44:50.109Z,4904
2017-03-18T14:45:59.823Z,4824
2017-03-18T14:47:10.170Z,4576
2017-03-18T14:48:20.202Z,4292
2017-03-18T14:49:30.566Z,3996
2017-03-18T14:50:40.944Z,3584
2017-03-18T14:51:51.272Z,3300
2017-03-18T14:53:01.667Z,3216
2017-03-18T14:54:12.015Z,3692
2017-03-18T14:55:22.374Z,4020
2017-03-18T14:56:32.737Z,3700
2017-03-18T14:57:43.114Z,3508
2017-03-18T14:58:53.150Z,3152
2017-03-18T15:00:02.867Z,3068
2017-03-18T15:01:13.258Z,3320
2017-03-18T15:02:23.631Z,2940
2017-03-18T15:03:33.675Z,2896
2017-03-18T15:04:44.030Z,2932
2017-03-18T15:05:54.389Z,2980
2017-03-18T15:07:04.751Z,2828
2017-03-18T15:08:15.105Z,2612
2017-03-18T15:09:25.464Z,2464
2017-03-18T15:10:35.835Z,2504
2017-03-18T15:11:46.200Z,2640
2017-03-18T15:12:56.554Z,2964
2017-03-18T15:14:06.912Z,3068
2017-03-18T15:15:17.258Z,3400
2017-03-18T15:16:27.302Z,3540
2017-03-18T15:17:37.347Z,3516
2017-03-18T15:18:47.697Z,3480
2017-03-18T15:19:58.066Z,3320
2017-03-18T15:21:08.416Z,3216
2017-03-18T15:22:18.766Z,3160
2017-03-18T15:23:29.135Z,3144
2017-03-18T15:24:39.174Z,3072
2017-03-18T15:25:49.528Z,2964
2017-03-18T15:26:59.909Z,2848
2017-03-18T15:28:10.269Z,2792
2017-03-18T15:29:20.622Z,2836
2017-03-18T15:30:30.983Z,2980
2017-03-18T15:31:41.335Z,3056
2017-03-18T15:32:51.687Z,2988
2017-03-18T15:34:02.042Z,2844
2017-03-18T15:35:12.385Z,2692
2017-03-18T15:36:22.727Z,2440
2017-03-18T15:37:33.076Z,2112
2017-03-18T15:38:43.451Z,1888
2017-03-18T15:39:53.485Z,1744
2017-03-18T15:41:03.825Z,1628
2017-03-18T15:42:13.871Z,1496
2017-03-18T15:43:24.213Z,1456
2017-03-18T15:44:34.561Z,1532
2017-03-18T15:45:44.901Z,1728
2017-03-18T15:46:55.489Z,1780
2017-03-18T15:48:05.824Z,1640
2017-03-18T15:49:16.172Z,1412
2017-03-18T15:50:26.545Z,1260
2017-03-18T15:51:36.893Z,1144
2017-03-18T15:52:46.954Z,1080
2017-03-18T15:53:56.673Z,1084
2017-03-18T15:55:07.014Z,1072
2017-03-18T15:56:17.029Z,1036
2017-03-18T15:57:27.079Z,1072
2017-03-18T15:58:37.118Z,1156
2017-03-18T15:59:47.476Z,1164
2017-03-18T16:00:57.514Z,1136
2017-03-18T16:02:07.881Z,1132
2017-03-18T16:03:17.920Z,1104
2017-03-18T16:04:27.637Z,1004
2017-03-18T16:05:37.682Z,888
2017-03-18T16:06:48.027Z,780
2017-03-18T16:07:58.371Z,716
2017-03-18T16:09:08.740Z,688
2017-03-18T16:10:19.108Z,688
2017-03-18T16:11:29.450Z,704
2017-03-18T16:12:39.847Z,720
2017-03-18T16:13:50.214Z,708
2017-03-18T16:15:00.594Z,688
2017-03-18T16:16:10.958Z,664
2017-03-18T16:17:21.300Z,652
2017-03-18T16:18:31.639Z,644
2017-03-18T16:19:41.679Z,640
2017-03-18T16:20:52.022Z,628
2017-03-18T16:22:02.372Z,608
2017-03-18T16:23:12.415Z,584
2017-03-18T16:24:22.695Z,596
2017-03-18T16:25:33.035Z,588
2017-03-18T16:26:43.064Z,532
2017-03-18T16:27:53.399Z,464
2017-03-18T16:29:03.784Z,424
2017-03-18T16:30:14.145Z,392
2017-03-18T16:31:24.526Z,376
2017-03-18T16:32:34.555Z,356
2017-03-18T16:33:44.278Z,344
2017-03-18T16:34:54.648Z,340
2017-03-18T16:36:04.988Z,340
2017-03-18T16:37:15.397Z,332
2017-03-18T16:38:25.786Z,308